Ryozan Maru — JG5364 — position and weather

sailwx.info

Track history (hours):
 
Tides and Currents Weather Stations Pressure Air Temp Water Temp Dewpoint Dewpoint Depression Visibility Wind Speed Wind Dir Waves Ship Positions

Ryozan Maru

Last reported at 2017-Dec-11 06:45 UTC. Time now 2017-Dec-14 13:18 UTC.
Position N 34°06' E 132°42'.

Length 65 m; draft 4.4 m.

Type: Tanker. MMSI: 431100316.

Date/timePositionNaut miles runAvg speedWind from/ knotsBaromVisibWave heightAir tempDewpointWater temp
2017-Dec-11 06:45N 34°06' E 132°42'313.0
2017-Dec-11 06:30N 34°05' E 132°38'1011.4
2017-Dec-11 05:39N 34°05' E 132°27'212.3
2017-Dec-11 05:28N 34°06' E 132°25'611.3
2017-Dec-11 04:57N 34°12' E 132°22'510.9
2017-Dec-11 04:30N 34°17' E 132°24'611.3
2017-Dec-11 04:00N 34°20' E 132°29'2 4.6
2017-Dec-11 03:30N 34°22' E 132°31'0 0.0
2017-Dec-11 03:00N 34°22' E 132°31'0 0.0
2017-Dec-11 02:30N 34°22' E 132°31'0 0.0
2017-Dec-11 02:00N 34°22' E 132°31'0 0.0
2017-Dec-11 01:30N 34°22' E 132°31'0 0.0
2017-Dec-11 01:00N 34°22' E 132°31'0 0.0
2017-Dec-11 00:30N 34°22' E 132°31'0 0.0
2017-Dec-11 00:00N 34°22' E 132°31'0 0.0
2017-Dec-10 23:30N 34°22' E 132°31'1 1.5
2017-Dec-10 23:00N 34°21' E 132°30'4 7.7
2017-Dec-10 22:30N 34°18' E 132°28'510.6
2017-Dec-10 22:00N 34°16' E 132°22'611.4
2017-Dec-10 21:30N 34°13' E 132°15'1 1.5
2017-Dec-10 21:00N 34°13' E 132°15'0 0.0
2017-Dec-10 20:30N 34°13' E 132°15'0 0.0
2017-Dec-10 20:00N 34°13' E 132°15'0 0.0
2017-Dec-10 19:30N 34°13' E 132°15'0 0.0
2017-Dec-10 19:00N 34°13' E 132°15'0 0.0
2017-Dec-10 18:30N 34°13' E 132°15'0 0.0
2017-Dec-10 18:00N 34°13' E 132°15'0 0.0
2017-Dec-10 17:30N 34°13' E 132°15'0 0.0
2017-Dec-10 17:00N 34°13' E 132°15'0 0.0
2017-Dec-10 16:30N 34°13' E 132°15'0 0.0
2017-Dec-10 16:00N 34°13' E 132°15'0 0.0
2017-Dec-10 15:30N 34°13' E 132°15'0 0.0
2017-Dec-10 15:01N 34°13' E 132°15'0 0.0
2017-Dec-10 14:30N 34°13' E 132°15'0 0.0
2017-Dec-10 14:00N 34°13' E 132°15'0 0.0
2017-Dec-10 13:30N 34°13' E 132°15'0 0.0
2017-Dec-10 13:00N 34°13' E 132°15'0 0.0
2017-Dec-10 12:30N 34°13' E 132°15'0 0.0
2017-Dec-10 12:00N 34°13' E 132°15'0 0.0
2017-Dec-10 11:30N 34°13' E 132°15'0 0.0
2017-Dec-10 11:00N 34°13' E 132°15'0 0.0
2017-Dec-10 10:30N 34°13' E 132°15'0 0.0
2017-Dec-10 10:00N 34°13' E 132°15'0 0.0
2017-Dec-10 09:30N 34°13' E 132°15'0 0.0
2017-Dec-10 09:00N 34°13' E 132°15'0 0.0
2017-Dec-10 08:30N 34°13' E 132°15'0 0.0
2017-Dec-10 08:00N 34°13' E 132°15'0 0.0
2017-Dec-10 07:30N 34°13' E 132°15'0 0.0
2017-Dec-10 07:00N 34°13' E 132°15'0 0.0
2017-Dec-10 06:30N 34°13' E 132°15'0 0.0
2017-Dec-10 06:00N 34°13' E 132°15'0 0.0
2017-Dec-10 05:30N 34°13' E 132°15'0 0.0
2017-Dec-10 05:00N 34°13' E 132°15'0 0.0
2017-Dec-10 04:30N 34°13' E 132°15'0 0.0
2017-Dec-10 04:00N 34°13' E 132°15'0 0.0
2017-Dec-10 03:30N 34°13' E 132°15'0 0.0
2017-Dec-10 03:00N 34°13' E 132°15'0 0.0
2017-Dec-10 02:30N 34°13' E 132°15'0 0.0
2017-Dec-10 02:00N 34°13' E 132°15'0 0.0
2017-Dec-10 01:30N 34°13' E 132°15'0 0.0
2017-Dec-10 01:00N 34°13' E 132°15'0 0.0
2017-Dec-10 00:30N 34°13' E 132°15'0 0.0
2017-Dec-10 00:00N 34°13' E 132°15'0 0.0
2017-Dec-09 23:30N 34°13' E 132°15'0 0.0
2017-Dec-09 23:00N 34°13' E 132°15'0 0.0
2017-Dec-09 22:30N 34°13' E 132°15'0 0.2
2017-Dec-09 22:00N 34°13' E 132°15'0 0.5
2017-Dec-09 21:30N 34°14' E 132°14'0 0.0
2017-Dec-09 21:00N 34°14' E 132°14'0 0.0
2017-Dec-09 20:30N 34°14' E 132°14'0 0.0
2017-Dec-09 20:00N 34°14' E 132°14'0 0.0
2017-Dec-09 19:30N 34°14' E 132°14'0 0.0
2017-Dec-09 19:00N 34°14' E 132°14'0 0.0
2017-Dec-09 18:30N 34°14' E 132°14'0 0.0
2017-Dec-09 18:00N 34°14' E 132°14'0 0.0
2017-Dec-09 17:30N 34°14' E 132°14'0 0.0
2017-Dec-09 17:00N 34°14' E 132°14'0 0.0
2017-Dec-09 16:30N 34°14' E 132°14'0 0.0
2017-Dec-09 16:00N 34°14' E 132°14'0 0.0
2017-Dec-09 15:30N 34°14' E 132°14'0 0.0
2017-Dec-09 15:00N 34°14' E 132°14'0 0.0
2017-Dec-09 14:30N 34°14' E 132°14'0 0.0
2017-Dec-09 14:00N 34°14' E 132°14'0 0.0
2017-Dec-09 13:30N 34°14' E 132°14'0 0.0
2017-Dec-09 13:00N 34°14' E 132°14'0 0.0
2017-Dec-09 12:30N 34°14' E 132°14'0 0.0
2017-Dec-09 12:00N 34°14' E 132°14'0 0.0
2017-Dec-09 11:30N 34°14' E 132°14'0 0.0
2017-Dec-09 11:00N 34°14' E 132°14'0 0.0
2017-Dec-09 10:30N 34°14' E 132°14'0 0.0
2017-Dec-09 10:00N 34°14' E 132°14'0 0.0
2017-Dec-09 09:30N 34°14' E 132°14'0 0.0
2017-Dec-09 09:00N 34°14' E 132°14'0 0.0
2017-Dec-09 08:30N 34°14' E 132°14'0 0.0
2017-Dec-09 08:00N 34°14' E 132°14'3 6.5
2017-Dec-09 07:30N 34°11' E 132°16'510.9
2017-Dec-09 07:00N 34°05' E 132°16'811.8
2017-Dec-09 06:22N 33°58' E 132°12'4 9.5
2017-Dec-09 05:57N 33°56' E 132°09'611.7
2017-Dec-09 05:24N 33°50' E 132°10'512.4
2017-Dec-09 05:00N 33°46' E 132°07'1112.2
2017-Dec-09 04:06N 33°36' E 132°01'612.9
2017-Dec-09 03:37N 33°30' E 131°57'213.2
2017-Dec-09 03:30N 33°29' E 131°56'613.2
2017-Dec-09 03:00N 33°23' E 131°52'612.6
2017-Dec-09 02:30N 33°18' E 131°48'2 0.6
2017-Dec-08 23:26N 33°16' E 131°47'610.5
2017-Dec-08 22:52N 33°22' E 131°49'411.3
2017-Dec-08 22:30N 33°26' E 131°49'611.2
2017-Dec-08 22:00N 33°32' E 131°52'3 6.8
2017-Dec-08 21:30N 33°29' E 131°55'10 5.4
2017-Dec-08 19:43N 33°34' E 132°05'2411.1
2017-Dec-08 17:33N 33°48' E 132°29'112.5
2017-Dec-08 17:30N 33°48' E 132°30'611.8
2017-Dec-08 17:00N 33°52' E 132°35'611.2
2017-Dec-08 16:30N 33°56' E 132°40'510.6
2017-Dec-08 16:00N 33°60' E 132°44'6910.3
2017-Dec-08 09:17N 34°26' E 134°01'  
2017-Dec-04 06:00N 33°21' E 131°58'2013.3
2017-Dec-04 04:29N 33°41' E 131°51'713.0
2017-Dec-04 03:57N 33°47' E 131°49'813.0
2017-Dec-04 03:22N 33°55' E 131°46'512.8
2017-Dec-04 03:00N 33°59' E 131°45'2 4.2
2017-Dec-04 02:30N 33°60' E 131°47'0 0.0
2017-Dec-04 02:00N 33°60' E 131°47'0 0.0
2017-Dec-04 01:30N 33°60' E 131°47'0 0.0
2017-Dec-04 01:00N 33°60' E 131°47'0 0.0
2017-Dec-04 00:30N 33°60' E 131°47'0 0.0
2017-Dec-04 00:00N 33°60' E 131°47'0 0.0
2017-Dec-03 23:30N 33°60' E 131°47'1 2.5
2017-Dec-03 23:00N 34°01' E 131°48'1 1.4
2017-Dec-03 22:30N 34°02' E 131°48'0 0.0
2017-Dec-03 21:51N 34°02' E 131°48'0 0.0
2017-Dec-03 21:30N 34°02' E 131°48'0 0.0
2017-Dec-03 18:12N 34°02' E 131°48'0 0.0
2017-Dec-03 17:54N 34°02' E 131°48'0 0.0
2017-Dec-03 17:24N 34°02' E 131°48'0 0.0
2017-Dec-03 17:00N 34°02' E 131°48'0 0.0
2017-Dec-03 15:30N 34°02' E 131°48'0 0.0
2017-Dec-03 14:57N 34°02' E 131°48'0 0.0
2017-Dec-03 14:24N 34°02' E 131°48'0 0.0
2017-Dec-03 13:54N 34°02' E 131°48'0 0.1
2017-Dec-03 13:00N 34°02' E 131°48'0 0.0
2017-Dec-03 11:48N 34°02' E 131°48'0 0.1
2017-Dec-03 11:24N 34°02' E 131°48'0 0.0
2017-Dec-03 11:00N 34°02' E 131°48'0 0.1
2017-Dec-03 09:54N 34°02' E 131°48'0 0.0
2017-Dec-03 09:30N 34°02' E 131°48'0 0.0
2017-Dec-03 09:00N 34°02' E 131°48'0 0.0
2017-Dec-03 08:30N 34°02' E 131°48'0 0.0
2017-Dec-03 07:54N 34°02' E 131°48'0 0.0
2017-Dec-03 07:30N 34°02' E 131°48'1 0.2
2017-Dec-03 04:16N 34°02' E 131°48'0 0.0
2017-Dec-03 03:59N 34°02' E 131°48'0 0.0
2017-Dec-03 03:30N 34°02' E 131°48'3 5.2
2017-Dec-03 03:00N 33°60' E 131°47'0 0.0
2017-Dec-03 02:25N 33°60' E 131°47'0 0.0
2017-Dec-03 01:58N 33°60' E 131°47'0 0.0
2017-Dec-03 01:07N 33°60' E 131°47'0 0.0
2017-Dec-03 00:58N 33°60' E 131°47'0 0.0
2017-Dec-03 00:16N 33°60' E 131°47'0 0.0
2017-Dec-02 23:58N 33°60' E 131°47'0 0.2
2017-Dec-02 23:29N 33°60' E 131°47'2 3.5
2017-Dec-02 22:54N 34°02' E 131°46'0 0.0
2017-Dec-02 22:30N 34°02' E 131°46'0 0.1
2017-Dec-02 22:00N 34°02' E 131°46'0 0.1
2017-Dec-02 21:23N 34°02' E 131°46'0 0.0
2017-Dec-02 20:54N 34°02' E 131°46'0 0.0
2017-Dec-02 20:29N 34°02' E 131°46'0 0.0
2017-Dec-02 19:54N 34°02' E 131°46'0 0.0
2017-Dec-02 19:30N 34°02' E 131°46'0 0.0
2017-Dec-02 18:48N 34°02' E 131°46'0 0.0
2017-Dec-02 18:30N 34°02' E 131°46'0 0.0
2017-Dec-02 18:00N 34°02' E 131°46'0 0.1
2017-Dec-02 17:24N 34°02' E 131°46'0 0.0
2017-Dec-02 17:00N 34°02' E 131°46'0 0.0
2017-Dec-02 16:29N 34°02' E 131°46'0 0.0
2017-Dec-02 15:59N 34°02' E 131°46'0 0.0
2017-Dec-02 15:30N 34°02' E 131°46'0 0.0
2017-Dec-02 12:30N 34°02' E 131°46'0 0.0
2017-Dec-02 09:17N 34°02' E 131°46'0 0.0
2017-Dec-02 08:59N 34°02' E 131°46'0 0.0
2017-Dec-02 08:29N 34°02' E 131°46'0 0.4
2017-Dec-02 08:00N 34°02' E 131°46'2 1.2
2017-Dec-02 06:31N 34°02' E 131°48'0 0.0
2017-Dec-02 06:14N 34°02' E 131°48'0 0.0
2017-Dec-02 04:05N 34°02' E 131°48'0 0.1
2017-Dec-02 04:00N 34°02' E 131°48'3 5.3
2017-Dec-02 03:30N 33°60' E 131°47'0 0.2
2017-Dec-02 03:00N 33°60' E 131°47'0 0.0
2017-Dec-02 02:30N 33°60' E 131°47'0 0.0
2017-Dec-02 02:00N 33°60' E 131°47'0 0.0
2017-Dec-02 01:30N 33°60' E 131°47'0 0.0
2017-Dec-02 01:00N 33°60' E 131°47'0 0.0
2017-Dec-02 00:29N 33°60' E 131°47'0 0.0
2017-Dec-02 00:00N 33°60' E 131°47'2 4.2
2017-Dec-01 23:30N 34°02' E 131°46'0 0.1
2017-Dec-01 21:59N 34°02' E 131°46'0 0.0
2017-Dec-01 15:53N 34°02' E 131°46'0 0.0
2017-Dec-01 09:47N 34°02' E 131°46'  
Track history (hours):
 
Tides and Currents Weather Stations Pressure Air Temp Water Temp Dewpoint Dewpoint Depression Visibility Wind Speed Wind Dir Waves Ship Positions

Ryozan Maru

Last reported at 2017-Dec-11 06:45 UTC. Time now 2017-Dec-14 13:18 UTC.
Position N 34°06' E 132°42'.

Length 65 m; draft 4.4 m.

Type: Tanker. MMSI: 431100316.

Date/timePositionNaut miles runAvg speedWind from/ knotsBaromVisibWave heightAir tempDewpointWater temp
2017-Dec-11 06:45N 34°06' E 132°42'313.0
2017-Dec-11 06:30N 34°05' E 132°38'1011.4
2017-Dec-11 05:39N 34°05' E 132°27'212.3
2017-Dec-11 05:28N 34°06' E 132°25'611.3
2017-Dec-11 04:57N 34°12' E 132°22'510.9
2017-Dec-11 04:30N 34°17' E 132°24'611.3
2017-Dec-11 04:00N 34°20' E 132°29'2 4.6
2017-Dec-11 03:30N 34°22' E 132°31'0 0.0
2017-Dec-11 03:00N 34°22' E 132°31'0 0.0
2017-Dec-11 02:30N 34°22' E 132°31'0 0.0
2017-Dec-11 02:00N 34°22' E 132°31'0 0.0
2017-Dec-11 01:30N 34°22' E 132°31'0 0.0
2017-Dec-11 01:00N 34°22' E 132°31'0 0.0
2017-Dec-11 00:30N 34°22' E 132°31'0 0.0
2017-Dec-11 00:00N 34°22' E 132°31'0 0.0
2017-Dec-10 23:30N 34°22' E 132°31'1 1.5
2017-Dec-10 23:00N 34°21' E 132°30'4 7.7
2017-Dec-10 22:30N 34°18' E 132°28'510.6
2017-Dec-10 22:00N 34°16' E 132°22'611.4
2017-Dec-10 21:30N 34°13' E 132°15'1 1.5
2017-Dec-10 21:00N 34°13' E 132°15'0 0.0
2017-Dec-10 20:30N 34°13' E 132°15'0 0.0
2017-Dec-10 20:00N 34°13' E 132°15'0 0.0
2017-Dec-10 19:30N 34°13' E 132°15'0 0.0
2017-Dec-10 19:00N 34°13' E 132°15'0 0.0
2017-Dec-10 18:30N 34°13' E 132°15'0 0.0
2017-Dec-10 18:00N 34°13' E 132°15'0 0.0
2017-Dec-10 17:30N 34°13' E 132°15'0 0.0
2017-Dec-10 17:00N 34°13' E 132°15'0 0.0
2017-Dec-10 16:30N 34°13' E 132°15'0 0.0
2017-Dec-10 16:00N 34°13' E 132°15'0 0.0
2017-Dec-10 15:30N 34°13' E 132°15'0 0.0
2017-Dec-10 15:01N 34°13' E 132°15'0 0.0
2017-Dec-10 14:30N 34°13' E 132°15'0 0.0
2017-Dec-10 14:00N 34°13' E 132°15'0 0.0
2017-Dec-10 13:30N 34°13' E 132°15'0 0.0
2017-Dec-10 13:00N 34°13' E 132°15'0 0.0
2017-Dec-10 12:30N 34°13' E 132°15'0 0.0
2017-Dec-10 12:00N 34°13' E 132°15'0 0.0
2017-Dec-10 11:30N 34°13' E 132°15'0 0.0
2017-Dec-10 11:00N 34°13' E 132°15'0 0.0
2017-Dec-10 10:30N 34°13' E 132°15'0 0.0
2017-Dec-10 10:00N 34°13' E 132°15'0 0.0
2017-Dec-10 09:30N 34°13' E 132°15'0 0.0
2017-Dec-10 09:00N 34°13' E 132°15'0 0.0
2017-Dec-10 08:30N 34°13' E 132°15'0 0.0
2017-Dec-10 08:00N 34°13' E 132°15'0 0.0
2017-Dec-10 07:30N 34°13' E 132°15'0 0.0
2017-Dec-10 07:00N 34°13' E 132°15'0 0.0
2017-Dec-10 06:30N 34°13' E 132°15'0 0.0
2017-Dec-10 06:00N 34°13' E 132°15'0 0.0
2017-Dec-10 05:30N 34°13' E 132°15'0 0.0
2017-Dec-10 05:00N 34°13' E 132°15'0 0.0
2017-Dec-10 04:30N 34°13' E 132°15'0 0.0
2017-Dec-10 04:00N 34°13' E 132°15'0 0.0
2017-Dec-10 03:30N 34°13' E 132°15'0 0.0
2017-Dec-10 03:00N 34°13' E 132°15'0 0.0
2017-Dec-10 02:30N 34°13' E 132°15'0 0.0
2017-Dec-10 02:00N 34°13' E 132°15'0 0.0
2017-Dec-10 01:30N 34°13' E 132°15'0 0.0
2017-Dec-10 01:00N 34°13' E 132°15'0 0.0
2017-Dec-10 00:30N 34°13' E 132°15'0 0.0
2017-Dec-10 00:00N 34°13' E 132°15'0 0.0
2017-Dec-09 23:30N 34°13' E 132°15'0 0.0
2017-Dec-09 23:00N 34°13' E 132°15'0 0.0
2017-Dec-09 22:30N 34°13' E 132°15'0 0.2
2017-Dec-09 22:00N 34°13' E 132°15'0 0.5
2017-Dec-09 21:30N 34°14' E 132°14'0 0.0
2017-Dec-09 21:00N 34°14' E 132°14'0 0.0
2017-Dec-09 20:30N 34°14' E 132°14'0 0.0
2017-Dec-09 20:00N 34°14' E 132°14'0 0.0
2017-Dec-09 19:30N 34°14' E 132°14'0 0.0
2017-Dec-09 19:00N 34°14' E 132°14'0 0.0
2017-Dec-09 18:30N 34°14' E 132°14'0 0.0
2017-Dec-09 18:00N 34°14' E 132°14'0 0.0
2017-Dec-09 17:30N 34°14' E 132°14'0 0.0
2017-Dec-09 17:00N 34°14' E 132°14'0 0.0
2017-Dec-09 16:30N 34°14' E 132°14'0 0.0
2017-Dec-09 16:00N 34°14' E 132°14'0 0.0
2017-Dec-09 15:30N 34°14' E 132°14'0 0.0
2017-Dec-09 15:00N 34°14' E 132°14'0 0.0
2017-Dec-09 14:30N 34°14' E 132°14'0 0.0
2017-Dec-09 14:00N 34°14' E 132°14'0 0.0
2017-Dec-09 13:30N 34°14' E 132°14'0 0.0
2017-Dec-09 13:00N 34°14' E 132°14'0 0.0
2017-Dec-09 12:30N 34°14' E 132°14'0 0.0
2017-Dec-09 12:00N 34°14' E 132°14'0 0.0
2017-Dec-09 11:30N 34°14' E 132°14'0 0.0
2017-Dec-09 11:00N 34°14' E 132°14'0 0.0
2017-Dec-09 10:30N 34°14' E 132°14'0 0.0
2017-Dec-09 10:00N 34°14' E 132°14'0 0.0
2017-Dec-09 09:30N 34°14' E 132°14'0 0.0
2017-Dec-09 09:00N 34°14' E 132°14'0 0.0
2017-Dec-09 08:30N 34°14' E 132°14'0 0.0
2017-Dec-09 08:00N 34°14' E 132°14'3 6.5
2017-Dec-09 07:30N 34°11' E 132°16'510.9
2017-Dec-09 07:00N 34°05' E 132°16'811.8
2017-Dec-09 06:22N 33°58' E 132°12'4 9.5
2017-Dec-09 05:57N 33°56' E 132°09'611.7
2017-Dec-09 05:24N 33°50' E 132°10'512.4
2017-Dec-09 05:00N 33°46' E 132°07'1112.2
2017-Dec-09 04:06N 33°36' E 132°01'612.9
2017-Dec-09 03:37N 33°30' E 131°57'213.2
2017-Dec-09 03:30N 33°29' E 131°56'613.2
2017-Dec-09 03:00N 33°23' E 131°52'612.6
2017-Dec-09 02:30N 33°18' E 131°48'2 0.6
2017-Dec-08 23:26N 33°16' E 131°47'610.5
2017-Dec-08 22:52N 33°22' E 131°49'411.3
2017-Dec-08 22:30N 33°26' E 131°49'611.2
2017-Dec-08 22:00N 33°32' E 131°52'3 6.8
2017-Dec-08 21:30N 33°29' E 131°55'10 5.4
2017-Dec-08 19:43N 33°34' E 132°05'2411.1
2017-Dec-08 17:33N 33°48' E 132°29'112.5
2017-Dec-08 17:30N 33°48' E 132°30'611.8
2017-Dec-08 17:00N 33°52' E 132°35'611.2
2017-Dec-08 16:30N 33°56' E 132°40'510.6
2017-Dec-08 16:00N 33°60' E 132°44'6910.3
2017-Dec-08 09:17N 34°26' E 134°01'  
2017-Dec-04 06:00N 33°21' E 131°58'2013.3
2017-Dec-04 04:29N 33°41' E 131°51'713.0
2017-Dec-04 03:57N 33°47' E 131°49'813.0
2017-Dec-04 03:22N 33°55' E 131°46'512.8
2017-Dec-04 03:00N 33°59' E 131°45'2 4.2
2017-Dec-04 02:30N 33°60' E 131°47'0 0.0
2017-Dec-04 02:00N 33°60' E 131°47'0 0.0
2017-Dec-04 01:30N 33°60' E 131°47'0 0.0
2017-Dec-04 01:00N 33°60' E 131°47'0 0.0
2017-Dec-04 00:30N 33°60' E 131°47'0 0.0
2017-Dec-04 00:00N 33°60' E 131°47'0 0.0
2017-Dec-03 23:30N 33°60' E 131°47'1 2.5
2017-Dec-03 23:00N 34°01' E 131°48'1 1.4
2017-Dec-03 22:30N 34°02' E 131°48'0 0.0
2017-Dec-03 21:51N 34°02' E 131°48'0 0.0
2017-Dec-03 21:30N 34°02' E 131°48'0 0.0
2017-Dec-03 18:12N 34°02' E 131°48'0 0.0
2017-Dec-03 17:54N 34°02' E 131°48'0 0.0
2017-Dec-03 17:24N 34°02' E 131°48'0 0.0
2017-Dec-03 17:00N 34°02' E 131°48'0 0.0
2017-Dec-03 15:30N 34°02' E 131°48'0 0.0
2017-Dec-03 14:57N 34°02' E 131°48'0 0.0
2017-Dec-03 14:24N 34°02' E 131°48'0 0.0
2017-Dec-03 13:54N 34°02' E 131°48'0 0.1
2017-Dec-03 13:00N 34°02' E 131°48'0 0.0
2017-Dec-03 11:48N 34°02' E 131°48'0 0.1
2017-Dec-03 11:24N 34°02' E 131°48'0 0.0
2017-Dec-03 11:00N 34°02' E 131°48'0 0.1
2017-Dec-03 09:54N 34°02' E 131°48'0 0.0
2017-Dec-03 09:30N 34°02' E 131°48'0 0.0
2017-Dec-03 09:00N 34°02' E 131°48'0 0.0
2017-Dec-03 08:30N 34°02' E 131°48'0 0.0
2017-Dec-03 07:54N 34°02' E 131°48'0 0.0
2017-Dec-03 07:30N 34°02' E 131°48'1 0.2
2017-Dec-03 04:16N 34°02' E 131°48'0 0.0
2017-Dec-03 03:59N 34°02' E 131°48'0 0.0
2017-Dec-03 03:30N 34°02' E 131°48'3 5.2
2017-Dec-03 03:00N 33°60' E 131°47'0 0.0
2017-Dec-03 02:25N 33°60' E 131°47'0 0.0
2017-Dec-03 01:58N 33°60' E 131°47'0 0.0
2017-Dec-03 01:07N 33°60' E 131°47'0 0.0
2017-Dec-03 00:58N 33°60' E 131°47'0 0.0
2017-Dec-03 00:16N 33°60' E 131°47'0 0.0
2017-Dec-02 23:58N 33°60' E 131°47'0 0.2
2017-Dec-02 23:29N 33°60' E 131°47'2 3.5
2017-Dec-02 22:54N 34°02' E 131°46'0 0.0
2017-Dec-02 22:30N 34°02' E 131°46'0 0.1
2017-Dec-02 22:00N 34°02' E 131°46'0 0.1
2017-Dec-02 21:23N 34°02' E 131°46'0 0.0
2017-Dec-02 20:54N 34°02' E 131°46'0 0.0
2017-Dec-02 20:29N 34°02' E 131°46'0 0.0
2017-Dec-02 19:54N 34°02' E 131°46'0 0.0
2017-Dec-02 19:30N 34°02' E 131°46'0 0.0
2017-Dec-02 18:48N 34°02' E 131°46'0 0.0
2017-Dec-02 18:30N 34°02' E 131°46'0 0.0
2017-Dec-02 18:00N 34°02' E 131°46'0 0.1
2017-Dec-02 17:24N 34°02' E 131°46'0 0.0
2017-Dec-02 17:00N 34°02' E 131°46'0 0.0
2017-Dec-02 16:29N 34°02' E 131°46'0 0.0
2017-Dec-02 15:59N 34°02' E 131°46'0 0.0
2017-Dec-02 15:30N 34°02' E 131°46'0 0.0
2017-Dec-02 12:30N 34°02' E 131°46'0 0.0
2017-Dec-02 09:17N 34°02' E 131°46'0 0.0
2017-Dec-02 08:59N 34°02' E 131°46'0 0.0
2017-Dec-02 08:29N 34°02' E 131°46'0 0.4
2017-Dec-02 08:00N 34°02' E 131°46'2 1.2
2017-Dec-02 06:31N 34°02' E 131°48'0 0.0
2017-Dec-02 06:14N 34°02' E 131°48'0 0.0
2017-Dec-02 04:05N 34°02' E 131°48'0 0.1
2017-Dec-02 04:00N 34°02' E 131°48'3 5.3
2017-Dec-02 03:30N 33°60' E 131°47'0 0.2
2017-Dec-02 03:00N 33°60' E 131°47'0 0.0
2017-Dec-02 02:30N 33°60' E 131°47'0 0.0
2017-Dec-02 02:00N 33°60' E 131°47'0 0.0
2017-Dec-02 01:30N 33°60' E 131°47'0 0.0
2017-Dec-02 01:00N 33°60' E 131°47'0 0.0
2017-Dec-02 00:29N 33°60' E 131°47'0 0.0
2017-Dec-02 00:00N 33°60' E 131°47'2 4.2
2017-Dec-01 23:30N 34°02' E 131°46'0 0.1
2017-Dec-01 21:59N 34°02' E 131°46'0 0.0
2017-Dec-01 15:53N 34°02' E 131°46'0 0.0
2017-Dec-01 09:47N 34°02' E 131°46'  

Dump ship's entire track history